sensor_id;sensor_type;location;lat;lon;timestamp;temperature;humidity
65239;SHT30;51827;51.186;6.926;2022-10-16T00:00:16;19.46;66.78
65239;SHT30;51827;51.186;6.926;2022-10-16T00:01:19;19.47;66.78
65239;SHT30;51827;51.186;6.926;2022-10-16T00:02:19;19.47;66.76
65239;SHT30;51827;51.186;6.926;2022-10-16T00:03:19;19.46;66.80
65239;SHT30;51827;51.186;6.926;2022-10-16T00:04:20;19.46;66.74
65239;SHT30;51827;51.186;6.926;2022-10-16T00:05:20;19.45;66.72
65239;SHT30;51827;51.186;6.926;2022-10-16T00:06:21;19.49;66.76
65239;SHT30;51827;51.186;6.926;2022-10-16T00:07:22;19.47;66.73
65239;SHT30;51827;51.186;6.926;2022-10-16T00:08:22;19.47;66.67
65239;SHT30;51827;51.186;6.926;2022-10-16T00:09:22;19.50;66.68
65239;SHT30;51827;51.186;6.926;2022-10-16T00:10:23;19.46;66.71
65239;SHT30;51827;51.186;6.926;2022-10-16T00:11:32;19.47;66.67
65239;SHT30;51827;51.186;6.926;2022-10-16T00:12:33;19.46;66.68
65239;SHT30;51827;51.186;6.926;2022-10-16T00:13:34;19.46;66.66
65239;SHT30;51827;51.186;6.926;2022-10-16T00:14:35;19.46;66.61
65239;SHT30;51827;51.186;6.926;2022-10-16T00:15:36;19.47;66.61
65239;SHT30;51827;51.186;6.926;2022-10-16T00:16:37;19.45;66.65
65239;SHT30;51827;51.186;6.926;2022-10-16T00:17:38;19.47;66.68
65239;SHT30;51827;51.186;6.926;2022-10-16T00:18:39;19.45;66.69
65239;SHT30;51827;51.186;6.926;2022-10-16T00:19:39;19.47;66.65
65239;SHT30;51827;51.186;6.926;2022-10-16T00:20:39;19.46;66.67
65239;SHT30;51827;51.186;6.926;2022-10-16T00:21:40;19.46;66.63
65239;SHT30;51827;51.186;6.926;2022-10-16T00:22:40;19.47;66.64
65239;SHT30;51827;51.186;6.926;2022-10-16T00:23:41;19.46;66.63
65239;SHT30;51827;51.186;6.926;2022-10-16T00:24:41;19.46;66.63
65239;SHT30;51827;51.186;6.926;2022-10-16T00:25:41;19.46;66.64
65239;SHT30;51827;51.186;6.926;2022-10-16T00:26:41;19.46;66.64
65239;SHT30;51827;51.186;6.926;2022-10-16T00:27:42;19.49;66.57
65239;SHT30;51827;51.186;6.926;2022-10-16T00:28:44;19.49;66.54
65239;SHT30;51827;51.186;6.926;2022-10-16T00:29:45;19.47;66.58
65239;SHT30;51827;51.186;6.926;2022-10-16T00:30:45;19.46;66.58
65239;SHT30;51827;51.186;6.926;2022-10-16T00:31:45;19.45;66.55
65239;SHT30;51827;51.186;6.926;2022-10-16T00:32:45;19.47;66.56
65239;SHT30;51827;51.186;6.926;2022-10-16T00:33:46;19.47;66.57
65239;SHT30;51827;51.186;6.926;2022-10-16T00:34:46;19.46;66.58
65239;SHT30;51827;51.186;6.926;2022-10-16T00:35:47;19.47;66.54
65239;SHT30;51827;51.186;6.926;2022-10-16T00:36:47;19.46;66.54
65239;SHT30;51827;51.186;6.926;2022-10-16T00:37:47;19.45;66.53
65239;SHT30;51827;51.186;6.926;2022-10-16T00:38:51;19.46;66.56
65239;SHT30;51827;51.186;6.926;2022-10-16T00:39:51;19.43;66.57
65239;SHT30;51827;51.186;6.926;2022-10-16T00:40:51;19.46;66.55
65239;SHT30;51827;51.186;6.926;2022-10-16T00:41:52;19.47;66.55
65239;SHT30;51827;51.186;6.926;2022-10-16T00:42:52;19.45;66.52
65239;SHT30;51827;51.186;6.926;2022-10-16T00:44:00;19.43;66.52
65239;SHT30;51827;51.186;6.926;2022-10-16T00:45:02;19.43;66.54
65239;SHT30;51827;51.186;6.926;2022-10-16T00:46:08;19.46;66.54
65239;SHT30;51827;51.186;6.926;2022-10-16T00:47:13;19.46;66.54
65239;SHT30;51827;51.186;6.926;2022-10-16T00:48:15;19.46;66.47
65239;SHT30;51827;51.186;6.926;2022-10-16T00:49:17;19.47;66.49
65239;SHT30;51827;51.186;6.926;2022-10-16T00:50:37;19.47;66.52
65239;SHT30;51827;51.186;6.926;2022-10-16T00:51:40;19.47;66.53
65239;SHT30;51827;51.186;6.926;2022-10-16T00:52:43;19.43;66.51
65239;SHT30;51827;51.186;6.926;2022-10-16T00:53:44;19.45;66.48
65239;SHT30;51827;51.186;6.926;2022-10-16T00:54:46;19.45;66.45
65239;SHT30;51827;51.186;6.926;2022-10-16T00:55:47;19.46;66.47
65239;SHT30;51827;51.186;6.926;2022-10-16T00:56:48;19.47;66.47
65239;SHT30;51827;51.186;6.926;2022-10-16T00:57:50;19.45;66.49
65239;SHT30;51827;51.186;6.926;2022-10-16T00:58:51;19.46;66.46
65239;SHT30;51827;51.186;6.926;2022-10-16T00:59:51;19.45;66.43
65239;SHT30;51827;51.186;6.926;2022-10-16T01:02:02;19.46;66.41
65239;SHT30;51827;51.186;6.926;2022-10-16T01:03:25;19.46;66.43
65239;SHT30;51827;51.186;6.926;2022-10-16T01:04:30;19.47;66.41
65239;SHT30;51827;51.186;6.926;2022-10-16T01:05:44;19.46;66.44
65239;SHT30;51827;51.186;6.926;2022-10-16T01:08:10;19.45;66.34
65239;SHT30;51827;51.186;6.926;2022-10-16T01:14:43;19.45;66.36
65239;SHT30;51827;51.186;6.926;2022-10-16T01:15:51;19.45;66.37
65239;SHT30;51827;51.186;6.926;2022-10-16T01:17:10;19.43;66.38
65239;SHT30;51827;51.186;6.926;2022-10-16T01:18:33;19.45;66.38
65239;SHT30;51827;51.186;6.926;2022-10-16T01:19:58;19.43;66.40
65239;SHT30;51827;51.186;6.926;2022-10-16T01:21:04;19.45;66.38
65239;SHT30;51827;51.186;6.926;2022-10-16T01:22:06;19.45;66.40
65239;SHT30;51827;51.186;6.926;2022-10-16T01:24:37;19.43;66.42
65239;SHT30;51827;51.186;6.926;2022-10-16T01:25:57;19.43;66.38
65239;SHT30;51827;51.186;6.926;2022-10-16T01:28:05;19.43;66.39
65239;SHT30;51827;51.186;6.926;2022-10-16T01:29:15;19.45;66.37
65239;SHT30;51827;51.186;6.926;2022-10-16T01:30:20;19.42;66.39
65239;SHT30;51827;51.186;6.926;2022-10-16T01:31:25;19.43;66.34
65239;SHT30;51827;51.186;6.926;2022-10-16T01:32:37;19.43;66.33
65239;SHT30;51827;51.186;6.926;2022-10-16T01:33:44;19.42;66.35
65239;SHT30;51827;51.186;6.926;2022-10-16T01:34:49;19.45;66.35
65239;SHT30;51827;51.186;6.926;2022-10-16T01:35:53;19.42;66.24
65239;SHT30;51827;51.186;6.926;2022-10-16T01:37:02;19.43;66.33
65239;SHT30;51827;51.186;6.926;2022-10-16T01:38:15;19.45;66.32
65239;SHT30;51827;51.186;6.926;2022-10-16T01:39:20;19.40;66.33
65239;SHT30;51827;51.186;6.926;2022-10-16T01:40:24;19.40;66.34
65239;SHT30;51827;51.186;6.926;2022-10-16T01:41:35;19.43;66.32
65239;SHT30;51827;51.186;6.926;2022-10-16T01:42:47;19.40;66.32
65239;SHT30;51827;51.186;6.926;2022-10-16T01:43:58;19.42;66.29
65239;SHT30;51827;51.186;6.926;2022-10-16T01:45:00;19.40;66.28
65239;SHT30;51827;51.186;6.926;2022-10-16T01:46:01;19.43;66.27
65239;SHT30;51827;51.186;6.926;2022-10-16T01:47:02;19.42;66.26
65239;SHT30;51827;51.186;6.926;2022-10-16T01:48:04;19.39;66.25
65239;SHT30;51827;51.186;6.926;2022-10-16T01:49:06;19.42;66.26
65239;SHT30;51827;51.186;6.926;2022-10-16T01:50:09;19.42;66.29
65239;SHT30;51827;51.186;6.926;2022-10-16T01:51:12;19.39;66.29
65239;SHT30;51827;51.186;6.926;2022-10-16T01:52:17;19.45;66.27
65239;SHT30;51827;51.186;6.926;2022-10-16T01:53:18;19.40;66.25
65239;SHT30;51827;51.186;6.926;2022-10-16T01:54:20;19.43;66.29
65239;SHT30;51827;51.186;6.926;2022-10-16T01:55:35;19.42;66.28
65239;SHT30;51827;51.186;6.926;2022-10-16T01:56:36;19.43;66.20
65239;SHT30;51827;51.186;6.926;2022-10-16T01:57:41;19.40;66.22
65239;SHT30;51827;51.186;6.926;2022-10-16T01:58:47;19.42;66.25
65239;SHT30;51827;51.186;6.926;2022-10-16T01:59:51;19.42;66.19
65239;SHT30;51827;51.186;6.926;2022-10-16T02:00:54;19.43;66.25
65239;SHT30;51827;51.186;6.926;2022-10-16T02:02:01;19.43;66.22
65239;SHT30;51827;51.186;6.926;2022-10-16T02:03:02;19.42;66.23
65239;SHT30;51827;51.186;6.926;2022-10-16T02:04:17;19.42;66.19
65239;SHT30;51827;51.186;6.926;2022-10-16T02:05:32;19.43;66.24
65239;SHT30;51827;51.186;6.926;2022-10-16T02:06:34;19.42;66.26
65239;SHT30;51827;51.186;6.926;2022-10-16T02:07:34;19.40;66.22
65239;SHT30;51827;51.186;6.926;2022-10-16T02:08:35;19.42;66.17
65239;SHT30;51827;51.186;6.926;2022-10-16T02:09:35;19.42;66.19
65239;SHT30;51827;51.186;6.926;2022-10-16T02:10:37;19.42;66.17
65239;SHT30;51827;51.186;6.926;2022-10-16T02:11:37;19.42;66.18
65239;SHT30;51827;51.186;6.926;2022-10-16T02:12:41;19.39;66.18
65239;SHT30;51827;51.186;6.926;2022-10-16T02:13:58;19.42;66.23
65239;SHT30;51827;51.186;6.926;2022-10-16T02:15:00;19.42;66.19
65239;SHT30;51827;51.186;6.926;2022-10-16T02:16:01;19.40;66.17
65239;SHT30;51827;51.186;6.926;2022-10-16T02:17:01;19.42;66.16
65239;SHT30;51827;51.186;6.926;2022-10-16T02:18:03;19.40;66.15
65239;SHT30;51827;51.186;6.926;2022-10-16T02:19:05;19.40;66.16
65239;SHT30;51827;51.186;6.926;2022-10-16T02:20:06;19.42;66.16
65239;SHT30;51827;51.186;6.926;2022-10-16T02:22:08;19.40;66.15
65239;SHT30;51827;51.186;6.926;2022-10-16T02:23:12;19.39;66.14
65239;SHT30;51827;51.186;6.926;2022-10-16T02:25:32;19.42;66.16
65239;SHT30;51827;51.186;6.926;2022-10-16T02:26:44;19.40;66.15
65239;SHT30;51827;51.186;6.926;2022-10-16T02:28:06;19.40;66.19
65239;SHT30;51827;51.186;6.926;2022-10-16T02:29:12;19.40;66.18
65239;SHT30;51827;51.186;6.926;2022-10-16T02:30:22;19.42;66.18
65239;SHT30;51827;51.186;6.926;2022-10-16T02:31:27;19.40;66.10
65239;SHT30;51827;51.186;6.926;2022-10-16T02:32:31;19.40;66.13
65239;SHT30;51827;51.186;6.926;2022-10-16T02:33:33;19.42;66.12
65239;SHT30;51827;51.186;6.926;2022-10-16T02:34:35;19.39;66.05
65239;SHT30;51827;51.186;6.926;2022-10-16T02:35:37;19.40;66.07
65239;SHT30;51827;51.186;6.926;2022-10-16T02:36:39;19.42;66.07
65239;SHT30;51827;51.186;6.926;2022-10-16T02:37:40;19.39;66.11
65239;SHT30;51827;51.186;6.926;2022-10-16T02:38:41;19.40;66.11
65239;SHT30;51827;51.186;6.926;2022-10-16T02:39:41;19.40;66.10
65239;SHT30;51827;51.186;6.926;2022-10-16T02:40:41;19.39;66.10
65239;SHT30;51827;51.186;6.926;2022-10-16T02:41:42;19.37;66.09
65239;SHT30;51827;51.186;6.926;2022-10-16T02:42:43;19.42;66.10
65239;SHT30;51827;51.186;6.926;2022-10-16T02:43:43;19.40;66.08
65239;SHT30;51827;51.186;6.926;2022-10-16T02:44:43;19.37;66.11
65239;SHT30;51827;51.186;6.926;2022-10-16T02:45:43;19.40;66.05
65239;SHT30;51827;51.186;6.926;2022-10-16T02:46:44;19.37;66.09
65239;SHT30;51827;51.186;6.926;2022-10-16T02:47:44;19.42;65.98
65239;SHT30;51827;51.186;6.926;2022-10-16T02:48:44;19.42;66.04
65239;SHT30;51827;51.186;6.926;2022-10-16T02:49:44;19.42;66.06
65239;SHT30;51827;51.186;6.926;2022-10-16T02:50:45;19.40;66.04
65239;SHT30;51827;51.186;6.926;2022-10-16T02:51:45;19.37;66.07
65239;SHT30;51827;51.186;6.926;2022-10-16T02:52:45;19.39;66.06
65239;SHT30;51827;51.186;6.926;2022-10-16T02:53:45;19.40;66.07
65239;SHT30;51827;51.186;6.926;2022-10-16T02:54:46;19.39;66.05
65239;SHT30;51827;51.186;6.926;2022-10-16T02:55:46;19.37;66.02
65239;SHT30;51827;51.186;6.926;2022-10-16T02:56:46;19.39;66.03
65239;SHT30;51827;51.186;6.926;2022-10-16T02:57:46;19.40;66.04
65239;SHT30;51827;51.186;6.926;2022-10-16T02:58:47;19.37;66.04
65239;SHT30;51827;51.186;6.926;2022-10-16T02:59:47;19.39;66.00
65239;SHT30;51827;51.186;6.926;2022-10-16T03:00:47;19.42;66.01
65239;SHT30;51827;51.186;6.926;2022-10-16T03:01:47;19.40;65.94
65239;SHT30;51827;51.186;6.926;2022-10-16T03:02:48;19.40;66.00
65239;SHT30;51827;51.186;6.926;2022-10-16T03:03:48;19.39;65.98
65239;SHT30;51827;51.186;6.926;2022-10-16T03:04:48;19.39;65.97
65239;SHT30;51827;51.186;6.926;2022-10-16T03:05:48;19.39;65.98
65239;SHT30;51827;51.186;6.926;2022-10-16T03:06:49;19.40;65.99
65239;SHT30;51827;51.186;6.926;2022-10-16T03:07:49;19.37;65.98
65239;SHT30;51827;51.186;6.926;2022-10-16T03:08:49;19.40;65.96
65239;SHT30;51827;51.186;6.926;2022-10-16T03:09:49;19.40;65.96
65239;SHT30;51827;51.186;6.926;2022-10-16T03:10:50;19.40;65.94
65239;SHT30;51827;51.186;6.926;2022-10-16T03:11:50;19.37;65.96
65239;SHT30;51827;51.186;6.926;2022-10-16T03:12:51;19.37;65.96
65239;SHT30;51827;51.186;6.926;2022-10-16T03:13:51;19.40;65.95
65239;SHT30;51827;51.186;6.926;2022-10-16T03:14:52;19.39;65.90
65239;SHT30;51827;51.186;6.926;2022-10-16T03:15:52;19.39;65.93
65239;SHT30;51827;51.186;6.926;2022-10-16T03:16:52;19.39;65.93
65239;SHT30;51827;51.186;6.926;2022-10-16T03:17:53;19.40;66.00
65239;SHT30;51827;51.186;6.926;2022-10-16T03:18:53;19.36;65.96
65239;SHT30;51827;51.186;6.926;2022-10-16T03:19:53;19.37;65.97
65239;SHT30;51827;51.186;6.926;2022-10-16T03:20:54;19.37;65.96
65239;SHT30;51827;51.186;6.926;2022-10-16T03:21:54;19.37;65.95
65239;SHT30;51827;51.186;6.926;2022-10-16T03:22:54;19.37;65.95
65239;SHT30;51827;51.186;6.926;2022-10-16T03:23:54;19.36;65.95
65239;SHT30;51827;51.186;6.926;2022-10-16T03:24:55;19.37;65.98
65239;SHT30;51827;51.186;6.926;2022-10-16T03:25:55;19.37;65.91
65239;SHT30;51827;51.186;6.926;2022-10-16T03:26:55;19.36;65.89
65239;SHT30;51827;51.186;6.926;2022-10-16T03:27:55;19.39;65.87
65239;SHT30;51827;51.186;6.926;2022-10-16T03:28:56;19.37;65.85
65239;SHT30;51827;51.186;6.926;2022-10-16T03:29:56;19.40;65.85
65239;SHT30;51827;51.186;6.926;2022-10-16T03:30:56;19.39;65.85
65239;SHT30;51827;51.186;6.926;2022-10-16T03:31:56;19.39;65.87
65239;SHT30;51827;51.186;6.926;2022-10-16T03:32:57;19.39;65.86
65239;SHT30;51827;51.186;6.926;2022-10-16T03:33:57;19.37;65.84
65239;SHT30;51827;51.186;6.926;2022-10-16T03:34:57;19.37;65.87
65239;SHT30;51827;51.186;6.926;2022-10-16T03:35:58;19.37;65.82
65239;SHT30;51827;51.186;6.926;2022-10-16T03:36:58;19.39;65.82
65239;SHT30;51827;51.186;6.926;2022-10-16T03:37:58;19.39;65.85
65239;SHT30;51827;51.186;6.926;2022-10-16T03:38:58;19.37;65.86
65239;SHT30;51827;51.186;6.926;2022-10-16T03:39:59;19.37;65.82
65239;SHT30;51827;51.186;6.926;2022-10-16T03:40:59;19.36;65.84
65239;SHT30;51827;51.186;6.926;2022-10-16T03:41:59;19.37;65.87
65239;SHT30;51827;51.186;6.926;2022-10-16T03:42:59;19.36;65.85
65239;SHT30;51827;51.186;6.926;2022-10-16T03:44:00;19.36;65.82
65239;SHT30;51827;51.186;6.926;2022-10-16T03:45:00;19.34;65.85
65239;SHT30;51827;51.186;6.926;2022-10-16T03:46:00;19.37;65.84
65239;SHT30;51827;51.186;6.926;2022-10-16T03:47:00;19.37;65.81
65239;SHT30;51827;51.186;6.926;2022-10-16T03:48:01;19.37;65.80
65239;SHT30;51827;51.186;6.926;2022-10-16T03:49:01;19.36;65.81
65239;SHT30;51827;51.186;6.926;2022-10-16T03:50:02;19.37;65.81
65239;SHT30;51827;51.186;6.926;2022-10-16T03:51:02;19.37;65.83
65239;SHT30;51827;51.186;6.926;2022-10-16T03:52:02;19.37;65.79
65239;SHT30;51827;51.186;6.926;2022-10-16T03:53:03;19.36;65.80
65239;SHT30;51827;51.186;6.926;2022-10-16T03:54:03;19.34;65.82
65239;SHT30;51827;51.186;6.926;2022-10-16T03:55:04;19.37;65.78
65239;SHT30;51827;51.186;6.926;2022-10-16T03:56:04;19.39;65.76
65239;SHT30;51827;51.186;6.926;2022-10-16T03:57:05;19.37;65.78
65239;SHT30;51827;51.186;6.926;2022-10-16T03:58:05;19.37;65.76
65239;SHT30;51827;51.186;6.926;2022-10-16T03:59:05;19.37;65.75
65239;SHT30;51827;51.186;6.926;2022-10-16T04:00:06;19.39;65.75
65239;SHT30;51827;51.186;6.926;2022-10-16T04:01:06;19.37;65.73
65239;SHT30;51827;51.186;6.926;2022-10-16T04:02:07;19.39;65.73
65239;SHT30;51827;51.186;6.926;2022-10-16T04:03:07;19.36;65.71
65239;SHT30;51827;51.186;6.926;2022-10-16T04:04:07;19.34;65.70
65239;SHT30;51827;51.186;6.926;2022-10-16T04:05:08;19.36;65.71
65239;SHT30;51827;51.186;6.926;2022-10-16T04:06:08;19.37;65.73
65239;SHT30;51827;51.186;6.926;2022-10-16T04:07:08;19.36;65.71
65239;SHT30;51827;51.186;6.926;2022-10-16T04:08:09;19.37;65.76
65239;SHT30;51827;51.186;6.926;2022-10-16T04:09:09;19.34;65.73
65239;SHT30;51827;51.186;6.926;2022-10-16T04:10:09;19.34;65.71
65239;SHT30;51827;51.186;6.926;2022-10-16T04:11:09;19.37;65.72
65239;SHT30;51827;51.186;6.926;2022-10-16T04:12:10;19.37;65.73
65239;SHT30;51827;51.186;6.926;2022-10-16T04:13:11;19.36;65.68
65239;SHT30;51827;51.186;6.926;2022-10-16T04:14:11;19.36;65.64
65239;SHT30;51827;51.186;6.926;2022-10-16T04:15:11;19.36;65.67
65239;SHT30;51827;51.186;6.926;2022-10-16T04:16:11;19.37;65.69
65239;SHT30;51827;51.186;6.926;2022-10-16T04:17:12;19.37;65.66
65239;SHT30;51827;51.186;6.926;2022-10-16T04:18:12;19.39;65.62
65239;SHT30;51827;51.186;6.926;2022-10-16T04:19:12;19.37;65.63
65239;SHT30;51827;51.186;6.926;2022-10-16T04:20:13;19.39;65.63
65239;SHT30;51827;51.186;6.926;2022-10-16T04:21:13;19.37;65.64
65239;SHT30;51827;51.186;6.926;2022-10-16T04:22:13;19.36;65.60
65239;SHT30;51827;51.186;6.926;2022-10-16T04:23:13;19.36;65.63
65239;SHT30;51827;51.186;6.926;2022-10-16T04:24:14;19.34;65.65
65239;SHT30;51827;51.186;6.926;2022-10-16T04:25:14;19.37;65.66
65239;SHT30;51827;51.186;6.926;2022-10-16T04:26:14;19.37;65.56
65239;SHT30;51827;51.186;6.926;2022-10-16T04:27:15;19.37;65.59
65239;SHT30;51827;51.186;6.926;2022-10-16T04:28:15;19.39;65.57
65239;SHT30;51827;51.186;6.926;2022-10-16T04:29:15;19.36;65.52
65239;SHT30;51827;51.186;6.926;2022-10-16T04:30:16;19.36;65.53
65239;SHT30;51827;51.186;6.926;2022-10-16T04:31:16;19.36;65.53
65239;SHT30;51827;51.186;6.926;2022-10-16T04:32:16;19.39;65.56
65239;SHT30;51827;51.186;6.926;2022-10-16T04:33:16;19.40;65.56
65239;SHT30;51827;51.186;6.926;2022-10-16T04:34:17;19.33;65.55
65239;SHT30;51827;51.186;6.926;2022-10-16T04:35:18;19.36;65.55
65239;SHT30;51827;51.186;6.926;2022-10-16T04:36:19;19.36;65.55
65239;SHT30;51827;51.186;6.926;2022-10-16T04:37:23;19.37;65.55
65239;SHT30;51827;51.186;6.926;2022-10-16T04:38:24;19.36;65.54
65239;SHT30;51827;51.186;6.926;2022-10-16T04:39:24;19.34;65.51
65239;SHT30;51827;51.186;6.926;2022-10-16T04:40:25;19.33;65.57
65239;SHT30;51827;51.186;6.926;2022-10-16T04:41:25;19.34;65.58
65239;SHT30;51827;51.186;6.926;2022-10-16T04:42:25;19.36;65.57
65239;SHT30;51827;51.186;6.926;2022-10-16T04:43:25;19.37;65.58
65239;SHT30;51827;51.186;6.926;2022-10-16T04:44:26;19.34;65.58
65239;SHT30;51827;51.186;6.926;2022-10-16T04:45:26;19.34;65.51
65239;SHT30;51827;51.186;6.926;2022-10-16T04:46:26;19.36;65.49
65239;SHT30;51827;51.186;6.926;2022-10-16T04:47:26;19.34;65.50
65239;SHT30;51827;51.186;6.926;2022-10-16T04:48:27;19.34;65.53
65239;SHT30;51827;51.186;6.926;2022-10-16T04:49:27;19.34;65.53
65239;SHT30;51827;51.186;6.926;2022-10-16T04:50:27;19.36;65.52
65239;SHT30;51827;51.186;6.926;2022-10-16T04:51:27;19.34;65.56
65239;SHT30;51827;51.186;6.926;2022-10-16T04:52:28;19.32;65.50
65239;SHT30;51827;51.186;6.926;2022-10-16T04:53:28;19.34;65.53
65239;SHT30;51827;51.186;6.926;2022-10-16T04:54:28;19.36;65.49
65239;SHT30;51827;51.186;6.926;2022-10-16T04:55:29;19.34;65.49
65239;SHT30;51827;51.186;6.926;2022-10-16T04:56:29;19.36;65.48
65239;SHT30;51827;51.186;6.926;2022-10-16T04:57:29;19.36;65.45
65239;SHT30;51827;51.186;6.926;2022-10-16T04:58:30;19.37;65.47
65239;SHT30;51827;51.186;6.926;2022-10-16T04:59:30;19.37;65.51
65239;SHT30;51827;51.186;6.926;2022-10-16T05:00:30;19.36;65.49
65239;SHT30;51827;51.186;6.926;2022-10-16T05:01:31;19.34;65.49
65239;SHT30;51827;51.186;6.926;2022-10-16T05:02:31;19.34;65.48
65239;SHT30;51827;51.186;6.926;2022-10-16T05:03:31;19.36;65.49
65239;SHT30;51827;51.186;6.926;2022-10-16T05:04:31;19.34;65.49
65239;SHT30;51827;51.186;6.926;2022-10-16T05:05:32;19.34;65.50
65239;SHT30;51827;51.186;6.926;2022-10-16T05:06:32;19.36;65.47
65239;SHT30;51827;51.186;6.926;2022-10-16T05:07:32;19.36;65.43
65239;SHT30;51827;51.186;6.926;2022-10-16T05:08:33;19.36;65.46
65239;SHT30;51827;51.186;6.926;2022-10-16T05:09:33;19.33;65.49
65239;SHT30;51827;51.186;6.926;2022-10-16T05:10:33;19.34;65.51
65239;SHT30;51827;51.186;6.926;2022-10-16T05:11:34;19.34;65.48
65239;SHT30;51827;51.186;6.926;2022-10-16T05:12:34;19.33;65.49
65239;SHT30;51827;51.186;6.926;2022-10-16T05:13:35;19.34;65.47
65239;SHT30;51827;51.186;6.926;2022-10-16T05:14:35;19.33;65.49
65239;SHT30;51827;51.186;6.926;2022-10-16T05:15:35;19.36;65.50
65239;SHT30;51827;51.186;6.926;2022-10-16T05:16:36;19.34;65.43
65239;SHT30;51827;51.186;6.926;2022-10-16T05:17:36;19.36;65.45
65239;SHT30;51827;51.186;6.926;2022-10-16T05:18:36;19.33;65.48
65239;SHT30;51827;51.186;6.926;2022-10-16T05:19:36;19.33;65.44
65239;SHT30;51827;51.186;6.926;2022-10-16T05:20:37;19.33;65.42
65239;SHT30;51827;51.186;6.926;2022-10-16T05:21:37;19.33;65.42
65239;SHT30;51827;51.186;6.926;2022-10-16T05:22:37;19.32;65.43
65239;SHT30;51827;51.186;6.926;2022-10-16T05:23:38;19.36;65.40
65239;SHT30;51827;51.186;6.926;2022-10-16T05:24:38;19.36;65.41
65239;SHT30;51827;51.186;6.926;2022-10-16T05:25:38;19.33;65.43
65239;SHT30;51827;51.186;6.926;2022-10-16T05:26:38;19.34;65.41
65239;SHT30;51827;51.186;6.926;2022-10-16T05:27:39;19.33;65.45
65239;SHT30;51827;51.186;6.926;2022-10-16T05:28:39;19.33;65.40
65239;SHT30;51827;51.186;6.926;2022-10-16T05:29:39;19.33;65.39
65239;SHT30;51827;51.186;6.926;2022-10-16T05:30:39;19.34;65.38
65239;SHT30;51827;51.186;6.926;2022-10-16T05:31:40;19.36;65.37
65239;SHT30;51827;51.186;6.926;2022-10-16T05:32:40;19.36;65.35
65239;SHT30;51827;51.186;6.926;2022-10-16T05:33:40;19.34;65.34
65239;SHT30;51827;51.186;6.926;2022-10-16T05:34:41;19.32;65.39
65239;SHT30;51827;51.186;6.926;2022-10-16T05:35:41;19.34;65.34
65239;SHT30;51827;51.186;6.926;2022-10-16T05:36:41;19.33;65.35
65239;SHT30;51827;51.186;6.926;2022-10-16T05:37:42;19.37;65.28
65239;SHT30;51827;51.186;6.926;2022-10-16T05:38:42;19.34;65.28
65239;SHT30;51827;51.186;6.926;2022-10-16T05:39:43;19.36;65.24
65239;SHT30;51827;51.186;6.926;2022-10-16T05:40:43;19.36;65.26
65239;SHT30;51827;51.186;6.926;2022-10-16T05:41:50;19.34;65.31
65239;SHT30;51827;51.186;6.926;2022-10-16T05:42:54;19.34;65.32
65239;SHT30;51827;51.186;6.926;2022-10-16T05:43:54;19.34;65.36
65239;SHT30;51827;51.186;6.926;2022-10-16T05:44:55;19.33;65.34
65239;SHT30;51827;51.186;6.926;2022-10-16T05:46:01;19.33;65.33
65239;SHT30;51827;51.186;6.926;2022-10-16T05:47:01;19.32;65.37
65239;SHT30;51827;51.186;6.926;2022-10-16T05:48:02;19.34;65.31
65239;SHT30;51827;51.186;6.926;2022-10-16T05:49:02;19.33;65.33
65239;SHT30;51827;51.186;6.926;2022-10-16T05:50:03;19.30;65.33
65239;SHT30;51827;51.186;6.926;2022-10-16T05:51:06;19.33;65.34
65239;SHT30;51827;51.186;6.926;2022-10-16T05:52:06;19.32;65.33
65239;SHT30;51827;51.186;6.926;2022-10-16T05:53:07;19.32;65.33
65239;SHT30;51827;51.186;6.926;2022-10-16T05:54:08;19.33;65.35
65239;SHT30;51827;51.186;6.926;2022-10-16T05:55:09;19.33;65.32
65239;SHT30;51827;51.186;6.926;2022-10-16T05:56:10;19.32;65.32
65239;SHT30;51827;51.186;6.926;2022-10-16T05:57:11;19.32;65.30
65239;SHT30;51827;51.186;6.926;2022-10-16T05:58:11;19.30;65.38
65239;SHT30;51827;51.186;6.926;2022-10-16T05:59:11;19.32;65.39
65239;SHT30;51827;51.186;6.926;2022-10-16T06:00:12;19.32;65.33
65239;SHT30;51827;51.186;6.926;2022-10-16T06:01:17;19.34;65.36
65239;SHT30;51827;51.186;6.926;2022-10-16T06:02:17;19.33;65.33
65239;SHT30;51827;51.186;6.926;2022-10-16T06:03:17;19.33;65.33
65239;SHT30;51827;51.186;6.926;2022-10-16T06:04:18;19.32;65.37
65239;SHT30;51827;51.186;6.926;2022-10-16T06:05:18;19.32;65.39
65239;SHT30;51827;51.186;6.926;2022-10-16T06:06:20;19.33;65.37
65239;SHT30;51827;51.186;6.926;2022-10-16T06:07:22;19.32;65.38
65239;SHT30;51827;51.186;6.926;2022-10-16T06:08:23;19.32;65.39
65239;SHT30;51827;51.186;6.926;2022-10-16T06:09:23;19.30;65.38
65239;SHT30;51827;51.186;6.926;2022-10-16T06:10:23;19.32;65.40
65239;SHT30;51827;51.186;6.926;2022-10-16T06:11:26;19.32;65.37
65239;SHT30;51827;51.186;6.926;2022-10-16T06:12:26;19.32;65.39
65239;SHT30;51827;51.186;6.926;2022-10-16T06:13:27;19.32;65.36
65239;SHT30;51827;51.186;6.926;2022-10-16T06:14:27;19.29;65.36
65239;SHT30;51827;51.186;6.926;2022-10-16T06:15:28;19.32;65.35
65239;SHT30;51827;51.186;6.926;2022-10-16T06:16:28;19.33;65.33
65239;SHT30;51827;51.186;6.926;2022-10-16T06:17:29;19.33;65.34
65239;SHT30;51827;51.186;6.926;2022-10-16T06:18:29;19.36;65.31
65239;SHT30;51827;51.186;6.926;2022-10-16T06:19:30;19.34;65.33
65239;SHT30;51827;51.186;6.926;2022-10-16T06:20:30;19.33;65.29
65239;SHT30;51827;51.186;6.926;2022-10-16T06:21:31;19.32;65.32
65239;SHT30;51827;51.186;6.926;2022-10-16T06:22:31;19.34;65.28
65239;SHT30;51827;51.186;6.926;2022-10-16T06:23:31;19.32;65.37
65239;SHT30;51827;51.186;6.926;2022-10-16T06:24:32;19.33;65.35
65239;SHT30;51827;51.186;6.926;2022-10-16T06:25:32;19.30;65.34
65239;SHT30;51827;51.186;6.926;2022-10-16T06:26:32;19.32;65.33
65239;SHT30;51827;51.186;6.926;2022-10-16T06:27:32;19.33;65.36
65239;SHT30;51827;51.186;6.926;2022-10-16T06:28:33;19.29;65.36
65239;SHT30;51827;51.186;6.926;2022-10-16T06:29:33;19.34;65.35
65239;SHT30;51827;51.186;6.926;2022-10-16T06:30:33;19.32;65.35
65239;SHT30;51827;51.186;6.926;2022-10-16T06:31:33;19.30;65.37
65239;SHT30;51827;51.186;6.926;2022-10-16T06:32:34;19.30;65.39
65239;SHT30;51827;51.186;6.926;2022-10-16T06:33:35;19.32;65.33
65239;SHT30;51827;51.186;6.926;2022-10-16T06:34:35;19.33;65.34
65239;SHT30;51827;51.186;6.926;2022-10-16T06:35:35;19.33;65.32
65239;SHT30;51827;51.186;6.926;2022-10-16T06:36:36;19.30;65.35
65239;SHT30;51827;51.186;6.926;2022-10-16T06:37:37;19.30;65.32
65239;SHT30;51827;51.186;6.926;2022-10-16T06:38:37;19.29;65.33
65239;SHT30;51827;51.186;6.926;2022-10-16T06:39:38;19.32;65.32
65239;SHT30;51827;51.186;6.926;2022-10-16T06:40:38;19.32;65.34
65239;SHT30;51827;51.186;6.926;2022-10-16T06:41:38;19.32;65.37
65239;SHT30;51827;51.186;6.926;2022-10-16T06:42:38;19.33;65.35